Time;durP1;ratioP1;P1;durP2;ratioP2;P2;SDS_P1;SDS_P2;PMS_P1;PMS_P2;Temp;Humidity;BMP_temperature;BMP_pressure;BME280_temperature;BME280_humidity;BME280_pressure;Samples;Min_cycle;Max_cycle;Signal;HPM_P1;HPM_P2
2023/08/02 00:00:18;;;;;;;1.48;0.68;;;;;;;17.27;80.28;153033.91;10544874;28;20426;-74
2023/08/02 00:05:20;;;;;;;1.30;0.80;;;;;;;17.10;81.52;152991.06;10543586;28;20044;-74
2023/08/02 00:10:21;;;;;;;0.88;0.68;;;;;;;16.96;82.52;152954.75;10525390;28;20047;-75
2023/08/02 00:15:23;;;;;;;1.85;0.80;;;;;;;17.00;82.13;152965.16;10524831;28;20056;-75
2023/08/02 00:20:25;;;;;;;2.50;0.68;;;;;;;16.90;83.14;152940.47;10543793;28;20048;-75
2023/08/02 00:25:27;;;;;;;0.98;0.70;;;;;;;16.91;82.20;152941.81;10543560;28;20042;-75
2023/08/02 00:30:32;;;;;;;1.58;0.52;;;;;;;16.85;82.39;152926.22;10525470;28;20039;-75
2023/08/02 00:35:33;;;;;;;1.33;0.80;;;;;;;16.64;84.10;152872.97;10542499;28;20042;-75
2023/08/02 00:40:35;;;;;;;1.17;0.70;;;;;;;16.65;83.52;152875.59;10523559;28;20160;-75
2023/08/02 00:45:55;;;;;;;1.15;0.52;;;;;;;16.53;84.62;152845.75;10567816;22;20130;-72
2023/08/02 00:50:57;;;;;;;0.60;0.60;;;;;;;16.55;83.49;152850.91;10582581;28;20043;-72
2023/08/02 00:56:00;;;;;;;0.60;0.60;;;;;;;16.47;84.85;152828.88;10582750;28;20118;-71
2023/08/02 01:01:11;;;;;;;1.08;0.60;;;;;;;16.45;85.19;152825.00;10582113;28;20031;-72
2023/08/02 01:06:32;;;;;;;1.35;0.70;;;;;;;16.37;84.99;152805.53;10564024;28;20067;-72
2023/08/02 01:11:40;;;;;;;2.30;1.48;;;;;;;16.41;84.39;152814.63;10583331;28;20040;-72
2023/08/02 01:16:44;;;;;;;1.30;0.90;;;;;;;16.40;84.77;152812.03;10563986;28;20454;-71
2023/08/02 01:21:46;;;;;;;2.40;0.80;;;;;;;16.33;85.57;152795.16;10582776;28;20071;-73
2023/08/02 01:26:48;;;;;;;1.95;0.82;;;;;;;16.22;86.87;152766.66;10563606;28;20134;-71
2023/08/02 01:31:52;;;;;;;1.45;0.70;;;;;;;16.09;88.15;152732.97;10582339;28;20044;-70
2023/08/02 01:36:54;;;;;;;1.05;0.60;;;;;;;16.10;88.41;152736.81;10547859;28;20082;-72
2023/08/02 01:41:56;;;;;;;1.02;0.70;;;;;;;16.06;88.74;152725.16;10584164;28;20111;-71
2023/08/02 01:46:57;;;;;;;1.00;0.60;;;;;;;15.70;92.00;152634.44;10571274;28;20059;-72
2023/08/02 01:51:59;;;;;;;1.55;0.80;;;;;;;15.41;94.41;152560.53;10570670;28;20131;-72
2023/08/02 01:57:01;;;;;;;2.28;0.70;;;;;;;15.27;95.96;152525.56;10571048;28;20052;-72
2023/08/02 02:02:03;;;;;;;1.27;0.70;;;;;;;15.23;97.35;152515.19;10588841;28;20481;-72
2023/08/02 02:07:05;;;;;;;3.20;0.73;;;;;;;15.18;98.68;152500.91;10570042;28;20050;-72
2023/08/02 02:12:07;;;;;;;1.30;0.70;;;;;;;15.21;98.47;152508.69;10590151;28;20117;-71
2023/08/02 02:17:09;;;;;;;1.17;0.70;;;;;;;15.46;98.62;152573.50;10588253;28;20035;-72
2023/08/02 02:22:13;;;;;;;1.85;0.85;;;;;;;15.39;97.80;152556.63;10562334;28;20043;-71
2023/08/02 02:27:15;;;;;;;1.95;0.73;;;;;;;15.36;97.29;152547.53;10571601;28;20040;-72
2023/08/02 02:32:17;;;;;;;1.20;1.05;;;;;;;15.53;96.61;152590.31;10570576;28;20039;-72
2023/08/02 02:37:19;;;;;;;1.65;0.73;;;;;;;15.84;92.76;152670.72;10569434;28;20458;-72
2023/08/02 02:42:21;;;;;;;1.55;0.60;;;;;;;16.13;89.68;152743.31;10570606;28;20070;-72
2023/08/02 02:47:23;;;;;;;1.27;0.50;;;;;;;16.10;88.91;152736.81;10587126;28;20089;-72
2023/08/02 02:52:25;;;;;;;1.33;0.77;;;;;;;16.08;90.04;152731.66;10569637;28;20048;-71
2023/08/02 02:57:26;;;;;;;0.82;0.60;;;;;;;15.98;90.93;152705.75;10570143;28;20048;-72
2023/08/02 03:02:28;;;;;;;1.42;0.73;;;;;;;16.00;90.27;152710.91;10587279;28;20127;-71
2023/08/02 03:07:30;;;;;;;1.60;0.60;;;;;;;15.96;90.76;152699.25;10587275;28;20456;-71
2023/08/02 03:12:32;;;;;;;1.25;0.80;;;;;;;15.78;92.37;152653.88;10587919;28;20115;-72
2023/08/02 03:17:34;;;;;;;1.75;0.77;;;;;;;15.69;93.94;152631.84;10567679;28;20074;-72
2023/08/02 03:22:36;;;;;;;2.03;0.80;;;;;;;15.62;93.79;152613.63;10567298;28;20044;-72
2023/08/02 03:27:39;;;;;;;1.48;0.70;;;;;;;15.58;93.79;152604.59;10567584;28;20036;-72
2023/08/02 03:32:41;;;;;;;1.95;0.80;;;;;;;15.52;94.81;152587.75;10567683;28;20481;-73
2023/08/02 03:37:44;;;;;;;1.30;0.90;;;;;;;15.46;95.25;152572.22;10567790;28;20528;-73
2023/08/02 03:42:45;;;;;;;1.13;0.68;;;;;;;15.28;96.75;152528.16;10567874;28;20040;-72
2023/08/02 03:47:47;;;;;;;2.45;0.70;;;;;;;15.22;98.01;152512.56;10567101;28;20393;-73
2023/08/02 03:52:49;;;;;;;2.63;0.70;;;;;;;15.39;94.97;152556.63;10567548;28;20456;-72
2023/08/02 03:57:51;;;;;;;1.67;0.80;;;;;;;15.09;97.01;152478.88;10585378;28;20067;-73
2023/08/02 04:02:56;;;;;;;1.60;0.60;;;;;;;15.15;96.87;152494.47;10567686;28;20157;-72
2023/08/02 04:07:58;;;;;;;2.10;0.63;;;;;;;15.55;91.08;152596.81;10584583;28;20044;-72
2023/08/02 04:12:59;;;;;;;1.55;0.70;;;;;;;15.62;91.39;152614.94;10565683;28;20071;-72
2023/08/02 04:18:02;;;;;;;1.13;0.80;;;;;;;15.73;89.58;152642.22;10549577;28;20500;-72
2023/08/02 04:23:05;;;;;;;0.77;0.65;;;;;;;15.62;90.01;152614.94;10566168;28;20463;-72
2023/08/02 04:28:07;;;;;;;2.85;1.05;;;;;;;15.62;90.43;152614.94;10566261;28;20043;-72
2023/08/02 04:33:09;;;;;;;0.98;0.60;;;;;;;15.89;89.91;152683.72;10585648;28;20097;-72
2023/08/02 04:38:11;;;;;;;2.38;1.25;;;;;;;15.76;91.93;152648.69;10565047;28;20048;-72
2023/08/02 04:43:13;;;;;;;1.40;0.70;;;;;;;15.99;91.67;152707.03;10584355;28;20496;-71
2023/08/02 04:48:15;;;;;;;1.25;0.82;;;;;;;16.37;85.01;152804.25;10566796;28;20047;-72
2023/08/02 04:53:16;;;;;;;2.22;0.60;;;;;;;16.61;84.82;152866.50;10566062;28;20507;-72
2023/08/02 04:58:18;;;;;;;3.35;0.88;;;;;;;17.13;79.58;152998.88;10582738;28;20047;-72
2023/08/02 05:03:21;;;;;;;1.38;0.80;;;;;;;17.21;77.91;153018.31;10583872;28;20059;-71
2023/08/02 05:08:23;;;;;;;4.22;0.80;;;;;;;17.29;77.91;153037.78;10582287;28;20047;-72
2023/08/02 05:13:25;;;;;;;1.17;0.70;;;;;;;17.42;76.99;153071.50;10582196;28;20042;-71
2023/08/02 05:18:27;;;;;;;1.60;0.95;;;;;;;17.55;76.28;153105.25;10585430;28;20468;-72
2023/08/02 05:23:29;;;;;;;2.25;1.33;;;;;;;17.51;76.28;153094.88;10571312;28;20059;-70
2023/08/02 05:28:30;;;;;;;1.23;0.68;;;;;;;17.61;76.05;153119.50;10589560;28;20079;-70
2023/08/02 05:33:32;;;;;;;3.20;0.80;;;;;;;17.58;76.03;153113.06;10589178;28;20127;-70
2023/08/02 05:38:34;;;;;;;1.65;0.70;;;;;;;17.61;76.83;153119.50;10588902;28;20122;-70
2023/08/02 05:43:36;;;;;;;0.90;0.77;;;;;;;17.65;76.08;153131.19;10571168;28;20066;-70
2023/08/02 05:48:38;;;;;;;1.77;0.98;;;;;;;17.61;80.77;153119.50;10588757;28;20047;-71
2023/08/02 05:53:39;;;;;;;1.83;0.80;;;;;;;17.38;84.26;153061.13;10588486;28;20381;-71
2023/08/02 05:58:41;;;;;;;1.90;0.68;;;;;;;17.34;88.16;153052.03;10570006;28;20075;-71
2023/08/02 06:03:42;;;;;;;1.95;1.00;;;;;;;17.27;84.80;153033.91;10588128;28;20036;-71
2023/08/02 06:08:45;;;;;;;1.38;0.80;;;;;;;17.54;84.58;153101.38;10588100;28;20047;-71
2023/08/02 06:13:47;;;;;;;1.30;0.85;;;;;;;17.83;81.89;153176.66;10588225;28;20051;-71
2023/08/02 06:18:49;;;;;;;1.60;1.00;;;;;;;17.98;80.50;153214.34;10587358;28;20075;-69
2023/08/02 06:23:51;;;;;;;1.85;1.05;;;;;;;18.11;80.00;153248.09;10587829;28;20114;-69
2023/08/02 06:28:53;;;;;;;2.97;0.85;;;;;;;18.06;79.04;153233.78;10586268;28;20043;-69
2023/08/02 06:33:54;;;;;;;1.30;0.85;;;;;;;18.14;77.62;153254.56;10586540;28;20106;-69
2023/08/02 06:38:56;;;;;;;2.08;1.17;;;;;;;18.39;76.25;153318.19;10586544;28;20050;-69
2023/08/02 06:43:58;;;;;;;1.83;0.77;;;;;;;18.59;74.80;153370.16;10586179;28;20035;-69
2023/08/02 06:49:00;;;;;;;2.08;0.90;;;;;;;18.97;71.86;153466.28;10605859;22;20048;-78
2023/08/02 06:54:02;;;;;;;2.15;0.98;;;;;;;19.20;71.70;153524.72;10591066;28;20042;-78
2023/08/02 06:59:04;;;;;;;1.80;0.90;;;;;;;19.81;69.13;153680.72;10588464;28;20134;-77
2023/08/02 07:04:06;;;;;;;3.05;0.82;;;;;;;20.05;65.84;153741.78;10588291;28;20123;-76
2023/08/02 07:09:08;;;;;;;2.92;1.00;;;;;;;20.39;62.04;153828.91;10589756;28;20100;-76
2023/08/02 07:14:10;;;;;;;2.05;0.85;;;;;;;20.21;61.53;153782.09;10590125;28;20477;-76
2023/08/02 07:19:12;;;;;;;2.42;1.13;;;;;;;20.01;62.19;153730.09;10569984;28;20047;-76
2023/08/02 07:24:13;;;;;;;1.02;0.70;;;;;;;20.14;61.52;153765.22;10588857;28;20504;-76
2023/08/02 07:29:15;;;;;;;1.70;0.80;;;;;;;20.26;63.48;153795.09;10565618;28;20471;-75
2023/08/02 07:34:17;;;;;;;1.75;0.90;;;;;;;20.44;63.05;153840.59;10545552;28;20063;-77
2023/08/02 07:39:19;;;;;;;2.20;1.23;;;;;;;20.64;62.04;153892.69;10545240;28;20093;-75
2023/08/02 07:44:21;;;;;;;1.23;0.82;;;;;;;20.85;60.67;153946.00;10578857;28;20451;-75
2023/08/02 07:49:22;;;;;;;1.33;0.70;;;;;;;21.14;60.23;154018.84;10568223;28;20071;-76
2023/08/02 07:54:24;;;;;;;1.75;0.75;;;;;;;21.17;57.08;154027.94;10566951;28;20109;-75
2023/08/02 07:59:26;;;;;;;1.20;0.70;;;;;;;21.24;57.61;154043.53;10551402;28;20497;-77
2023/08/02 08:04:28;;;;;;;1.58;0.70;;;;;;;21.10;57.05;154009.72;10586018;28;20043;-74
2023/08/02 08:09:30;;;;;;;0.82;0.75;;;;;;;21.25;58.33;154047.47;10568057;28;20059;-75
2023/08/02 08:14:33;;;;;;;2.28;0.98;;;;;;;21.29;56.56;154057.84;10584841;28;20054;-76
2023/08/02 08:19:34;;;;;;;1.23;0.88;;;;;;;21.52;57.84;154116.47;10566194;28;20122;-76
2023/08/02 08:24:37;;;;;;;1.40;0.95;;;;;;;21.87;57.54;154204.97;10567840;28;20039;-76
2023/08/02 08:29:38;;;;;;;1.17;0.60;;;;;;;21.69;54.69;154158.06;10568360;28;20047;-76
2023/08/02 08:34:42;;;;;;;1.70;1.25;;;;;;;21.71;55.01;154163.31;10581959;28;20046;-76
2023/08/02 08:39:44;;;;;;;5.38;0.80;;;;;;;21.70;56.31;154160.72;10582466;28;20051;-75
2023/08/02 08:44:51;;;;;;;2.72;0.90;;;;;;;21.94;54.94;154221.84;10582852;28;20085;-76
2023/08/02 08:49:59;;;;;;;1.00;0.70;;;;;;;21.89;52.73;154211.44;10581945;28;20451;-75
2023/08/02 08:55:04;;;;;;;1.73;0.80;;;;;;;22.12;54.30;154268.75;10573055;28;20042;-75
2023/08/02 09:00:08;;;;;;;1.35;0.70;;;;;;;22.50;51.63;154365.09;10572057;28;20055;-75
2023/08/02 09:05:10;;;;;;;1.40;0.73;;;;;;;22.70;52.00;154415.88;10589493;28;20050;-75
2023/08/02 09:10:12;;;;;;;2.08;1.00;;;;;;;22.84;49.24;154452.31;10571653;28;20047;-75
2023/08/02 09:15:15;;;;;;;1.52;0.80;;;;;;;22.89;49.01;154466.72;10589868;28;20040;-76
2023/08/02 09:20:22;;;;;;;0.85;0.73;;;;;;;23.02;52.74;154497.94;10569801;28;20043;-75
2023/08/02 09:25:26;;;;;;;1.10;0.70;;;;;;;22.81;49.23;154445.84;10587383;28;20039;-74
2023/08/02 09:30:30;;;;;;;1.13;1.00;;;;;;;22.82;48.64;154447.13;10588419;28;20096;-75
2023/08/02 09:35:50;;;;;;;0.98;0.75;;;;;;;23.04;48.92;154503.19;10588338;28;20039;-74
2023/08/02 09:40:52;;;;;;;2.13;0.80;;;;;;;23.62;47.33;154651.66;10588215;28;20043;-75
2023/08/02 09:46:30;;;;;;;1.17;0.90;;;;;;;23.63;46.96;154655.56;10588600;28;20562;-75
2023/08/02 09:51:40;;;;;;;1.25;0.90;;;;;;;23.44;47.34;154606.06;10589062;28;20419;-75
2023/08/02 09:56:43;;;;;;;1.35;1.17;;;;;;;23.94;47.43;154732.50;10587315;28;20039;-75
2023/08/02 10:01:47;;;;;;;1.77;1.30;;;;;;;24.17;47.87;154793.78;10587352;28;20044;-74
2023/08/02 10:06:57;;;;;;;1.55;1.10;;;;;;;24.34;48.51;154836.75;10587979;28;20115;-75
2023/08/02 10:12:13;;;;;;;1.45;1.10;;;;;;;24.98;44.75;154999.78;10568963;28;20487;-75
2023/08/02 10:17:16;;;;;;;1.05;0.80;;;;;;;24.89;43.26;154976.31;10568775;28;20046;-74
2023/08/02 10:22:19;;;;;;;1.02;0.80;;;;;;;24.72;44.83;154933.28;10568861;28;20497;-74
2023/08/02 10:27:22;;;;;;;1.02;0.85;;;;;;;25.10;44.92;155031.16;10568660;28;20039;-74
2023/08/02 10:32:23;;;;;;;2.42;1.05;;;;;;;24.50;45.19;154877.22;10586131;28;20101;-73
2023/08/02 10:38:03;;;;;;;1.00;0.90;;;;;;;24.35;46.04;154838.09;10550912;28;20126;-73
2023/08/02 10:43:06;;;;;;;2.25;0.80;;;;;;;24.50;46.55;154877.22;10586365;28;20127;-72
2023/08/02 10:48:28;;;;;;;1.65;1.10;;;;;;;24.48;47.36;154872.03;10585686;28;20055;-72
2023/08/02 10:53:30;;;;;;;1.70;1.02;;;;;;;24.60;47.74;154901.97;10567781;28;20082;-73
2023/08/02 10:58:46;;;;;;;1.90;1.00;;;;;;;24.91;44.84;154982.81;10585493;28;20077;-73
2023/08/02 11:03:48;;;;;;;;;;;;;;;25.12;47.08;155035.03;10588544;28;20433;-73
2023/08/02 11:08:50;;;;;;;1.38;0.80;;;;;;;25.24;45.61;155065.06;10585343;28;20435;-72
2023/08/02 11:13:51;;;;;;;1.75;0.90;;;;;;;25.33;45.18;155089.81;10584329;28;20543;-74
2023/08/02 11:18:53;;;;;;;1.38;0.80;;;;;;;25.38;43.99;155101.56;10584195;28;20100;-72
2023/08/02 11:24:00;;;;;;;1.38;0.88;;;;;;;24.95;43.60;154991.94;10584034;28;20131;-72
2023/08/02 11:29:07;;;;;;;2.25;0.80;;;;;;;24.42;45.16;154856.38;10566817;28;20043;-71
2023/08/02 11:34:12;;;;;;;2.05;0.93;;;;;;;24.23;45.95;154806.81;10583629;28;20050;-71
2023/08/02 11:39:18;;;;;;;1.10;0.73;;;;;;;23.88;45.06;154719.47;10565251;28;20116;-72
2023/08/02 11:44:20;;;;;;;1.08;0.93;;;;;;;23.84;45.86;154707.75;10565087;28;20044;-71
2023/08/02 11:49:23;;;;;;;1.77;1.10;;;;;;;23.63;46.26;154654.28;10565057;28;20130;-72
2023/08/02 11:54:26;;;;;;;2.60;1.23;;;;;;;23.45;47.78;154608.66;10583549;28;20036;-72
2023/08/02 11:59:28;;;;;;;1.02;0.65;;;;;;;23.32;48.26;154576.09;10582729;28;20108;-72
2023/08/02 12:04:39;;;;;;;2.00;0.80;;;;;;;23.12;47.27;154525.31;10582463;28;20382;-72
2023/08/02 12:09:43;;;;;;;1.02;0.70;;;;;;;22.83;47.12;154449.72;10564195;28;20050;-72
2023/08/02 12:14:45;;;;;;;1.42;0.90;;;;;;;22.81;48.25;154444.53;10582059;28;20048;-73
2023/08/02 12:19:47;;;;;;;1.15;0.75;;;;;;;22.67;48.49;154410.69;10582043;28;20070;-72
2023/08/02 12:25:06;;;;;;;1.40;0.80;;;;;;;22.52;49.00;154370.28;10582594;28;20122;-72
2023/08/02 12:30:10;;;;;;;1.10;0.88;;;;;;;22.77;49.73;154435.41;10582234;28;20078;-73
2023/08/02 12:35:13;;;;;;;2.20;0.80;;;;;;;22.90;49.25;154468.03;10563889;28;20074;-73
2023/08/02 12:40:18;;;;;;;1.98;1.00;;;;;;;22.90;49.86;154469.31;10551306;28;20043;-73
2023/08/02 12:45:25;;;;;;;1.58;0.90;;;;;;;22.87;52.70;154460.13;10540165;28;20044;-73
2023/08/02 12:50:28;;;;;;;1.02;0.82;;;;;;;22.55;51.83;154378.13;10539410;28;20127;-72
2023/08/02 12:55:30;;;;;;;0.77;0.60;;;;;;;22.22;53.14;154293.47;10539536;28;20105;-72
2023/08/02 13:00:32;;;;;;;0.98;0.60;;;;;;;22.08;53.67;154259.59;10542650;28;20081;-72
2023/08/02 13:05:34;;;;;;;1.00;0.80;;;;;;;21.87;53.03;154204.97;10581776;28;20416;-71
2023/08/02 13:10:36;;;;;;;1.85;0.90;;;;;;;21.92;53.79;154217.97;10563207;28;20568;-72
2023/08/02 13:15:37;;;;;;;1.10;1.00;;;;;;;21.87;54.71;154206.25;10581286;28;20043;-71
2023/08/02 13:20:41;;;;;;;1.50;1.00;;;;;;;21.86;55.61;154202.31;10563934;28;20044;-73
2023/08/02 13:25:43;;;;;;;1.45;0.80;;;;;;;21.65;56.98;154150.31;10581252;28;20063;-73
2023/08/02 13:30:45;;;;;;;1.33;1.08;;;;;;;21.38;58.43;154080.00;10564473;28;20058;-72
2023/08/02 13:35:46;;;;;;;1.35;1.10;;;;;;;21.13;58.49;154017.53;10580514;28;20044;-72
2023/08/02 13:40:50;;;;;;;0.93;0.90;;;;;;;20.93;59.46;153965.50;10587908;28;20160;-72
2023/08/02 13:45:52;;;;;;;1.05;0.98;;;;;;;20.88;60.87;153953.78;10589896;28;20118;-71
2023/08/02 13:50:54;;;;;;;1.13;0.90;;;;;;;20.98;61.05;153978.47;10588838;28;20061;-71
2023/08/02 13:55:56;;;;;;;1.40;0.90;;;;;;;20.88;60.62;153952.50;10589706;28;20108;-72
2023/08/02 14:00:58;;;;;;;2.25;1.00;;;;;;;20.80;62.74;153932.97;10589249;28;20066;-72
2023/08/02 14:06:01;;;;;;;1.13;0.80;;;;;;;20.58;63.88;153877.03;10572242;28;20086;-71
2023/08/02 14:11:03;;;;;;;0.95;0.88;;;;;;;20.41;65.12;153834.13;10575307;28;20063;-72
2023/08/02 14:16:04;;;;;;;3.13;1.40;;;;;;;20.39;66.97;153828.91;10591569;28;20046;-73
2023/08/02 14:21:07;;;;;;;1.63;1.30;;;;;;;20.39;68.45;153827.59;10590252;28;20527;-72
2023/08/02 14:26:09;;;;;;;1.10;1.00;;;;;;;20.53;67.78;153864.06;10589800;28;20040;-72
2023/08/02 14:31:11;;;;;;;2.08;1.00;;;;;;;20.35;69.19;153818.50;10588563;28;20095;-72
2023/08/02 14:36:13;;;;;;;1.00;0.80;;;;;;;20.34;70.11;153815.91;10587821;28;20119;-72
2023/08/02 14:41:14;;;;;;;0.85;0.82;;;;;;;20.00;74.81;153728.78;10587085;28;20500;-72
2023/08/02 14:46:16;;;;;;;2.65;0.90;;;;;;;19.63;79.54;153635.22;10587182;28;20035;-72
2023/08/02 14:51:18;;;;;;;1.10;0.98;;;;;;;19.39;83.86;153572.84;10568928;28;20063;-69
2023/08/02 14:56:21;;;;;;;1.48;1.30;;;;;;;19.21;86.55;153527.31;10585762;28;20074;-69
2023/08/02 15:01:22;;;;;;;1.40;1.30;;;;;;;18.94;92.59;153458.47;10585336;28;20043;-70
2023/08/02 15:06:25;;;;;;;1.35;1.20;;;;;;;18.72;93.39;153402.63;10585143;28;20115;-69
2023/08/02 15:11:27;;;;;;;1.92;1.75;;;;;;;18.66;100.00;153388.28;10584902;28;20152;-71
2023/08/02 15:16:28;;;;;;;1.80;1.60;;;;;;;18.72;97.68;153401.34;10585088;28;20097;-71
2023/08/02 15:21:30;;;;;;;2.30;1.90;;;;;;;18.67;100.00;153390.88;10566157;28;20505;-71
2023/08/02 15:26:32;;;;;;;2.25;2.10;;;;;;;18.62;100.00;153376.63;10566561;28;20477;-71
2023/08/02 15:31:33;;;;;;;2.72;2.20;;;;;;;18.65;100.00;153384.41;10584221;28;20383;-70
2023/08/02 15:36:35;;;;;;;2.13;2.03;;;;;;;18.72;100.00;153402.63;10583896;28;20434;-71
2023/08/02 15:41:37;;;;;;;1.80;1.70;;;;;;;18.82;100.00;153427.34;10565687;28;20123;-71
2023/08/02 15:46:39;;;;;;;1.25;1.15;;;;;;;18.92;100.00;153452.00;10583924;28;20044;-70
2023/08/02 15:51:41;;;;;;;1.65;1.25;;;;;;;18.96;100.00;153463.69;10583191;28;20059;-70
2023/08/02 15:56:43;;;;;;;1.52;1.00;;;;;;;19.24;100.00;153533.84;10564565;28;20046;-71
2023/08/02 16:01:45;;;;;;;1.40;1.30;;;;;;;19.26;100.00;153539.06;10582258;28;20047;-71
2023/08/02 16:06:49;;;;;;;1.00;1.00;;;;;;;19.30;100.00;153549.41;10547420;28;20509;-71
2023/08/02 16:11:52;;;;;;;1.02;0.80;;;;;;;19.40;100.00;153576.72;10582244;28;20557;-71
2023/08/02 16:16:53;;;;;;;1.67;0.85;;;;;;;19.28;100.00;153545.53;10581941;28;20043;-71
2023/08/02 16:21:55;;;;;;;2.03;0.80;;;;;;;19.20;100.00;153523.44;10581949;28;20050;-70
2023/08/02 16:26:57;;;;;;;0.68;0.68;;;;;;;19.15;100.00;153513.03;10582044;28;20047;-70
2023/08/02 16:32:01;;;;;;;0.88;0.88;;;;;;;19.06;100.00;153488.38;10582069;28;20511;-70
2023/08/02 16:37:03;;;;;;;1.58;1.05;;;;;;;19.10;100.00;153500.06;10582044;28;20474;-71
2023/08/02 16:42:05;;;;;;;0.85;0.85;;;;;;;19.10;100.00;153500.06;10582207;28;20048;-70
2023/08/02 16:47:07;;;;;;;1.05;0.90;;;;;;;19.09;100.00;153496.19;10563815;28;20047;-70
2023/08/02 16:52:08;;;;;;;0.77;0.77;;;;;;;19.10;100.00;153498.75;10581871;28;20078;-70
2023/08/02 16:57:10;;;;;;;1.70;0.70;;;;;;;19.32;100.00;153554.63;10562965;28;20043;-70
2023/08/02 17:02:12;;;;;;;0.65;0.63;;;;;;;19.38;100.00;153570.19;10581993;28;20063;-69
2023/08/02 17:07:14;;;;;;;0.93;0.75;;;;;;;19.28;100.00;153545.53;10581117;28;20039;-70
2023/08/02 17:12:16;;;;;;;0.57;0.57;;;;;;;19.14;100.00;153510.44;10582989;28;20048;-70
2023/08/02 17:17:18;;;;;;;0.93;0.70;;;;;;;19.00;100.00;153474.09;10571776;28;20063;-70
2023/08/02 17:22:19;;;;;;;0.80;0.80;;;;;;;19.07;100.00;153492.25;10572506;28;20047;-70
2023/08/02 17:27:21;;;;;;;1.23;0.90;;;;;;;19.14;100.00;153509.16;10590643;28;20105;-70
2023/08/02 17:32:24;;;;;;;0.70;0.70;;;;;;;19.09;100.00;153496.19;10590114;28;20109;-70
2023/08/02 17:37:25;;;;;;;0.80;0.60;;;;;;;19.08;100.00;153493.53;10588878;28;20066;-71
2023/08/02 17:42:27;;;;;;;0.60;0.55;;;;;;;19.05;100.00;153485.78;10589187;28;20525;-70
2023/08/02 17:47:29;;;;;;;0.50;0.50;;;;;;;19.03;100.00;153481.84;10588772;28;20040;-71
2023/08/02 17:52:30;;;;;;;0.43;0.40;;;;;;;18.88;100.00;153444.19;10588414;28;20108;-70
2023/08/02 17:57:32;;;;;;;0.50;0.50;;;;;;;18.81;100.00;153424.69;10570317;28;20043;-70
2023/08/02 18:02:34;;;;;;;0.35;0.35;;;;;;;18.66;100.00;153388.28;10589350;28;20042;-70
2023/08/02 18:07:36;;;;;;;0.40;0.40;;;;;;;18.79;100.00;153419.53;10569736;28;20520;-71
2023/08/02 18:12:38;;;;;;;0.50;0.47;;;;;;;18.59;100.00;153370.16;10587153;28;20039;-70
2023/08/02 18:17:40;;;;;;;0.60;0.60;;;;;;;18.57;100.00;153364.94;10587259;28;20107;-70
2023/08/02 18:22:42;;;;;;;0.90;0.90;;;;;;;18.51;100.00;153348.06;10587101;28;20044;-70
2023/08/02 18:27:43;;;;;;;1.27;1.10;;;;;;;18.41;100.00;153324.66;10585898;28;20534;-71
2023/08/02 18:32:46;;;;;;;1.27;1.20;;;;;;;18.45;100.00;153333.75;10588512;28;20440;-71
2023/08/02 18:37:47;;;;;;;1.10;1.10;;;;;;;18.58;100.00;153367.50;10588171;28;20111;-70
2023/08/02 18:42:52;;;;;;;1.05;1.00;;;;;;;18.62;100.00;153377.91;10586936;28;20050;-70
2023/08/02 18:47:54;;;;;;;1.38;1.27;;;;;;;18.57;100.00;153364.94;10587305;28;20446;-70
2023/08/02 18:52:56;;;;;;;2.03;1.92;;;;;;;18.44;100.00;153331.16;10588284;28;20039;-71
2023/08/02 18:58:00;;;;;;;3.33;3.03;;;;;;;18.34;100.00;153305.22;10572162;28;20074;-71
2023/08/02 19:03:02;;;;;;;2.55;2.35;;;;;;;18.50;100.00;153345.44;10590318;28;20073;-70
2023/08/02 19:08:04;;;;;;;2.67;2.47;;;;;;;18.43;100.00;153328.56;10589912;28;20046;-71
2023/08/02 19:13:15;;;;;;;1.70;1.60;;;;;;;18.46;100.00;153336.38;10589434;28;20122;-71
2023/08/02 19:18:16;;;;;;;2.35;2.25;;;;;;;18.47;100.00;153338.97;10570499;28;20039;-72
2023/08/02 19:23:18;;;;;;;2.17;2.08;;;;;;;18.35;100.00;153309.09;10588701;28;20081;-71
2023/08/02 19:28:21;;;;;;;2.42;2.33;;;;;;;18.27;100.00;153287.00;10588329;28;20047;-70
2023/08/02 19:33:22;;;;;;;1.88;1.77;;;;;;;18.36;100.00;153311.69;10557625;28;20047;-71
2023/08/02 19:38:24;;;;;;;2.10;1.90;;;;;;;18.19;100.00;153266.25;10571587;28;20378;-70
2023/08/02 19:43:27;;;;;;;2.15;1.63;;;;;;;18.35;100.00;153309.09;10573429;28;20042;-70
2023/08/02 19:48:36;;;;;;;4.22;3.83;;;;;;;18.07;100.00;153236.41;10587862;28;20442;-70
2023/08/02 19:53:37;;;;;;;2.38;2.17;;;;;;;18.11;100.00;153246.81;10553880;28;20044;-71
2023/08/02 19:58:40;;;;;;;2.90;2.55;;;;;;;18.04;100.00;153228.59;10541596;28;20047;-72
2023/08/02 20:03:41;;;;;;;1.80;1.70;;;;;;;18.26;100.00;153284.44;10542367;28;20062;-71
2023/08/02 20:08:46;;;;;;;1.80;1.02;;;;;;;18.41;100.00;153323.34;10558119;28;20450;-70
2023/08/02 20:13:50;;;;;;;0.80;0.80;;;;;;;18.32;100.00;153300.00;10544916;28;20413;-70
2023/08/02 20:18:53;;;;;;;1.55;1.10;;;;;;;18.30;100.00;153294.81;10542249;28;20040;-71
2023/08/02 20:24:02;;;;;;;3.95;1.20;;;;;;;18.32;100.00;153300.00;10547501;28;20040;-70
2023/08/02 20:29:04;;;;;;;1.08;0.95;;;;;;;18.37;100.00;153312.97;10564979;28;20043;-70
2023/08/02 20:34:10;;;;;;;1.88;1.25;;;;;;;18.27;100.00;153287.00;10583217;28;20035;-70
2023/08/02 20:39:14;;;;;;;1.53;1.27;;;;;;;18.19;100.00;153266.25;10583089;28;20089;-70
2023/08/02 20:44:22;;;;;;;1.40;1.30;;;;;;;18.02;100.00;153223.44;10582328;28;20044;-70
2023/08/02 20:49:43;;;;;;;1.60;1.50;;;;;;;18.03;100.00;153226.03;10574062;28;20046;-69
2023/08/02 20:54:44;;;;;;;1.67;1.58;;;;;;;17.93;100.00;153200.03;10596720;28;20046;-69
2023/08/02 20:59:46;;;;;;;1.52;1.42;;;;;;;17.95;100.00;153206.53;10596624;28;20109;-69
2023/08/02 21:04:48;;;;;;;2.72;2.17;;;;;;;18.01;100.00;153220.81;10597294;28;20514;-69
2023/08/02 21:09:54;;;;;;;2.15;2.05;;;;;;;17.89;100.00;153190.97;10596171;28;20070;-69
2023/08/02 21:14:56;;;;;;;2.67;2.47;;;;;;;18.01;100.00;153222.09;10596957;28;20051;-70
2023/08/02 21:19:58;;;;;;;2.67;2.47;;;;;;;17.89;100.00;153192.28;10578032;28;20078;-71
2023/08/02 21:24:59;;;;;;;2.75;2.53;;;;;;;17.69;100.00;153139.00;10596215;28;20060;-69
2023/08/02 21:30:01;;;;;;;2.80;2.60;;;;;;;17.78;100.00;153163.69;10595537;28;20104;-69
2023/08/02 21:35:09;;;;;;;3.00;2.80;;;;;;;17.72;100.00;153148.09;10595441;28;20126;-69
2023/08/02 21:40:15;;;;;;;2.92;2.72;;;;;;;17.70;100.00;153142.88;10595615;28;20040;-69
2023/08/02 21:45:17;;;;;;;;;;;;;;;17.61;100.00;153119.50;10595260;28;20035;-69
2023/08/02 21:50:19;;;;;;;1.15;0.73;;;;;;;17.77;100.00;153159.81;10594519;28;19962;-70
2023/08/02 21:55:23;;;;;;;1.42;0.85;;;;;;;17.74;100.00;153153.31;10594904;28;20040;-69
2023/08/02 22:00:25;;;;;;;0.80;0.80;;;;;;;18.09;100.00;153241.56;10589373;28;20044;-69
2023/08/02 22:05:27;;;;;;;0.98;0.68;;;;;;;18.01;100.00;153222.09;10588090;28;20504;-70
2023/08/02 22:10:31;;;;;;;1.70;0.60;;;;;;;18.06;100.00;153233.78;10587243;28;20054;-69
2023/08/02 22:15:33;;;;;;;1.20;0.90;;;;;;;17.99;100.00;153216.91;10587055;28;20119;-69
2023/08/02 22:20:34;;;;;;;0.50;0.50;;;;;;;17.94;100.00;153203.94;10587338;28;20127;-70
2023/08/02 22:25:37;;;;;;;0.70;0.45;;;;;;;18.05;98.03;153232.47;10586647;28;20042;-71
2023/08/02 22:30:38;;;;;;;1.00;0.70;;;;;;;17.87;100.00;153185.75;10586981;28;20068;-71
2023/08/02 22:35:40;;;;;;;1.88;0.60;;;;;;;17.78;100.00;153163.69;10568008;28;20046;-69
2023/08/02 22:40:43;;;;;;;0.90;0.70;;;;;;;17.81;99.59;153170.19;10588260;28;20123;-70
2023/08/02 22:45:45;;;;;;;1.48;0.70;;;;;;;17.57;100.00;153110.41;10586038;28;20036;-69
2023/08/02 22:50:47;;;;;;;1.27;0.82;;;;;;;17.14;100.00;153001.47;10567666;28;20496;-70
2023/08/02 22:55:56;;;;;;;1.30;0.60;;;;;;;17.17;100.00;153007.91;10585437;28;20112;-70
2023/08/02 23:01:00;;;;;;;2.13;0.90;;;;;;;17.56;100.00;153107.84;10566913;28;20134;-70
2023/08/02 23:06:03;;;;;;;0.93;0.60;;;;;;;17.53;100.00;153100.09;10585129;28;20035;-70